createdAt,value
2019-02-12T05:03:40.958Z,102107.87
2019-02-12T05:07:08.854Z,102067.14
2019-02-12T05:10:36.751Z,102074.93
2019-02-12T05:14:04.636Z,102071.78
2019-02-12T05:17:32.542Z,102083.82
2019-02-12T05:21:00.433Z,102076.11
2019-02-12T05:24:28.320Z,102088.61
2019-02-12T05:27:56.222Z,102095
2019-02-12T05:31:25.107Z,102098.14
2019-02-12T05:34:52.997Z,102101.1
2019-02-12T05:38:21.920Z,102113.78
2019-02-12T05:41:49.829Z,102137.1
2019-02-12T05:45:17.735Z,102132.04
2019-02-12T05:48:45.639Z,102133.2
2019-02-12T05:52:13.554Z,102159.54
2019-02-12T05:55:42.445Z,102163.57
2019-02-12T05:59:10.328Z,102174.24
2019-02-12T06:02:38.218Z,102180.62
2019-02-12T06:06:06.123Z,102179.71
2019-02-12T06:09:34.015Z,102198.68
2019-02-12T06:13:01.917Z,102197.89
2019-02-12T06:16:29.812Z,102209.71
2019-02-12T06:19:57.727Z,102219.1
2019-02-12T06:23:25.631Z,102232.37
2019-02-12T06:26:54.515Z,102231.73
2019-02-12T06:30:22.397Z,102237.53
2019-02-12T06:33:50.327Z,102243.62
2019-02-12T06:37:18.243Z,102248.57
2019-02-12T06:40:46.120Z,102248.76
2019-02-12T06:44:14.023Z,102235.71
2019-02-12T06:47:42.914Z,102244.53
2019-02-12T06:51:10.818Z,102248.24
2019-02-12T06:54:38.705Z,102249.54
2019-02-12T06:58:06.611Z,102261.93
2019-02-12T07:01:34.516Z,102272.68
2019-02-12T07:05:04.372Z,102263.81
2019-02-12T07:08:32.275Z,102270.58
2019-02-12T07:12:00.176Z,102276.39
2019-02-12T07:15:30.030Z,102283.96
2019-02-12T07:18:58.946Z,102289.94
2019-02-12T07:22:26.845Z,102293.34
2019-02-12T07:25:55.719Z,102296.55
2019-02-12T07:29:24.611Z,102301.53
2019-02-12T07:32:53.496Z,102307.65
2019-02-12T07:36:21.729Z,102315.17
2019-02-12T07:39:49.610Z,102331.11
2019-02-12T07:43:17.507Z,102330.56
2019-02-12T07:46:45.415Z,102337
2019-02-12T07:50:13.295Z,102355.92
2019-02-12T07:53:41.202Z,102349.12
2019-02-12T07:57:10.118Z,102369.95
2019-02-12T08:00:39.021Z,102388.45
2019-02-12T08:04:06.889Z,102376.88
2019-02-12T08:07:34.803Z,102386.5
2019-02-12T08:11:02.706Z,102403.9
2019-02-12T08:14:30.597Z,102408.27
2019-02-12T08:17:58.504Z,102411.56
2019-02-12T08:21:26.399Z,102408.79
2019-02-12T08:24:54.284Z,102419.71
2019-02-12T08:28:22.211Z,102422.09
2019-02-12T08:31:50.118Z,102408.73
2019-02-12T08:35:19.034Z,102415.4
2019-02-12T08:38:47.002Z,102420.4
2019-02-12T08:42:14.912Z,102428.05
2019-02-12T08:45:42.826Z,102433.89
2019-02-12T08:49:10.735Z,102436.89
2019-02-12T08:52:38.665Z,102456.07
2019-02-12T08:56:06.569Z,102460.26
2019-02-12T08:59:34.480Z,102468.24
2019-02-12T09:03:02.468Z,102468.48
2019-02-12T09:06:30.325Z,102472.55
2019-02-12T09:09:58.233Z,102489.67
2019-02-12T09:13:27.129Z,102493.09
2019-02-12T09:16:55.030Z,102498.64
2019-02-12T09:20:22.923Z,102504.37
2019-02-12T09:23:59.360Z,102512.51
2019-02-12T09:27:23.688Z,102511.79
2019-02-12T09:30:51.558Z,102515.14
2019-02-12T09:34:20.433Z,102526.75
2019-02-12T09:37:48.484Z,102528.8
2019-02-12T09:41:16.384Z,102533.51
2019-02-12T09:44:45.281Z,102543.59
2019-02-12T09:48:13.180Z,102545.47
2019-02-12T09:51:41.049Z,102550.18
2019-02-12T09:55:08.934Z,102559.08
2019-02-12T09:58:36.850Z,102560.96
2019-02-12T10:02:04.729Z,102561.21
2019-02-12T10:05:32.612Z,102576.6
2019-02-12T10:09:00.660Z,102568.65
2019-02-12T10:12:28.553Z,102580.32
2019-02-12T10:15:56.437Z,102576.68
2019-02-12T10:19:24.323Z,102585.73
2019-02-12T10:22:52.194Z,102593.48
2019-02-12T10:26:20.087Z,102603.84
2019-02-12T10:29:47.973Z,102610
2019-02-12T10:33:16.839Z,102610.44
2019-02-12T10:36:44.723Z,102623.26
2019-02-12T10:40:13.614Z,102621.12
2019-02-12T10:43:41.493Z,102620.62
2019-02-12T10:47:10.375Z,102635.59
2019-02-12T10:50:38.325Z,102631.77
2019-02-12T10:54:06.260Z,102636.97
2019-02-12T10:57:36.125Z,102627.21
2019-02-12T11:01:04.018Z,102633.09
2019-02-12T11:04:32.896Z,102633.9
2019-02-12T11:08:00.775Z,102651.64
2019-02-12T11:11:28.668Z,102631.8
2019-02-12T11:14:56.586Z,102627.34
2019-02-12T11:18:25.473Z,102635.79
2019-02-12T11:21:54.366Z,102652.37
2019-02-12T11:25:22.257Z,102641.61
2019-02-12T11:28:50.257Z,102652.17
2019-02-12T11:32:18.139Z,102654.46
2019-02-12T11:35:46.030Z,102645.93
2019-02-12T11:39:15.030Z,102660.48
2019-02-12T11:42:42.902Z,102662.03
2019-02-12T11:46:11.523Z,102656.26
2019-02-12T11:49:39.498Z,102660.47
2019-02-12T11:53:07.377Z,102671.15
2019-02-12T11:56:36.185Z,102668.29
2019-02-12T12:00:04.086Z,102678.74
2019-02-12T12:03:31.997Z,102675.42
2019-02-12T12:06:59.897Z,102688.65
2019-02-12T12:10:27.902Z,102686.39
2019-02-12T12:13:56.809Z,102694.97
2019-02-12T12:17:24.714Z,102692.08
2019-02-12T12:20:52.636Z,102686.98
2019-02-12T12:24:20.518Z,102714.64
2019-02-12T12:27:48.449Z,102707.92
2019-02-12T12:31:16.360Z,102702.01
2019-02-12T12:34:45.246Z,102723.68
2019-02-12T12:38:13.145Z,102712.42
2019-02-12T12:41:42.716Z,102727.34
2019-02-12T12:45:10.544Z,102722.4
2019-02-12T12:48:40.039Z,102727.56
2019-02-12T12:52:07.447Z,102721.71
2019-02-12T12:55:35.325Z,102729.06
2019-02-12T12:59:03.255Z,102727.53
2019-02-12T13:02:31.181Z,102730.65
2019-02-12T13:06:00.193Z,102736.6
2019-02-12T13:09:28.138Z,102731.39
2019-02-12T13:12:57.078Z,102752.68
2019-02-12T13:16:25.356Z,102744.23
2019-02-12T13:19:53.258Z,102742.97
2019-02-12T13:23:21.176Z,102745.78
2019-02-12T13:26:49.094Z,102755.97
2019-02-12T13:30:17.021Z,102748.36
2019-02-12T13:33:44.982Z,102753.33
2019-02-12T13:37:13.886Z,102756.82
2019-02-12T13:40:41.795Z,102756.5
2019-02-12T13:44:09.735Z,102755.42
2019-02-12T13:47:37.670Z,102759.49
2019-02-12T13:51:05.669Z,102765.21
2019-02-12T13:54:34.548Z,102756.53
2019-02-12T13:58:02.529Z,102760.17
2019-02-12T14:01:31.025Z,102765.85
2019-02-12T14:04:58.976Z,102774.03
2019-02-12T14:08:26.907Z,102775
2019-02-12T14:11:54.822Z,102772.75
2019-02-12T14:15:22.737Z,102781.9
2019-02-12T14:18:50.672Z,102788.93
2019-02-12T14:22:19.579Z,102784.1
2019-02-12T14:25:47.512Z,102788.92
2019-02-12T14:29:15.422Z,102789.68
2019-02-12T14:32:43.364Z,102781.79
2019-02-12T14:36:11.222Z,102793.2
2019-02-12T14:39:39.179Z,102791.71
2019-02-12T14:43:13.813Z,102788.33
2019-02-12T14:46:39.138Z,102781.55
2019-02-12T14:50:07.171Z,102787.14
2019-02-12T14:53:35.148Z,102786.76
2019-02-12T14:57:04.220Z,102787.55
2019-02-12T15:00:33.256Z,102790.83
2019-02-12T15:04:01.202Z,102794.9
2019-02-12T15:07:29.165Z,102788.86
2019-02-12T15:10:57.257Z,102791.73
2019-02-12T15:14:25.354Z,102798.37
2019-02-12T15:17:53.451Z,102800.5
2019-02-12T15:21:21.379Z,102808.17
2019-02-12T15:24:49.296Z,102810.06
2019-02-12T15:28:17.225Z,102796.76
2019-02-12T15:31:45.150Z,102801.15
2019-02-12T15:35:13.124Z,102807.1
2019-02-12T15:38:41.103Z,102806.82
2019-02-12T15:42:09.026Z,102811.01
2019-02-12T15:45:37.083Z,102813.64
2019-02-12T15:49:05.455Z,102809.48
2019-02-12T15:52:33.628Z,102817.1
2019-02-12T15:56:01.946Z,102824.56
2019-02-12T15:59:33.452Z,102816.68
2019-02-12T16:03:01.189Z,102822.92
2019-02-12T16:06:29.345Z,102828.29
2019-02-12T16:09:58.450Z,102822.75
2019-02-12T16:13:26.491Z,102828.22
2019-02-12T16:16:55.571Z,102839.79
2019-02-12T16:20:23.659Z,102843.37
2019-02-12T16:23:52.682Z,102841.7
2019-02-12T16:27:20.872Z,102841.75
2019-02-12T16:30:48.889Z,102852.4
2019-02-12T16:34:16.899Z,102857.68
2019-02-12T16:37:46.108Z,102859.73
2019-02-12T16:41:14.503Z,102857.07
2019-02-12T16:44:42.889Z,102860.18
2019-02-12T16:48:10.903Z,102859.28
2019-02-12T16:51:39.111Z,102865.56
2019-02-12T16:55:07.273Z,102866.56
2019-02-12T16:58:36.217Z,102869.13
2019-02-12T17:02:04.206Z,102882.28
2019-02-12T17:05:32.100Z,102879.25
2019-02-12T17:09:00.000Z,102876.82
2019-02-12T17:12:27.898Z,102871.37
2019-02-12T17:15:55.798Z,102869.76
2019-02-12T17:19:23.708Z,102872.18
2019-02-12T17:22:51.608Z,102872.68
2019-02-12T17:26:19.506Z,102875.39
2019-02-12T17:29:47.404Z,102875.87
2019-02-12T17:33:15.310Z,102876.4
2019-02-12T17:36:44.234Z,102876.26
2019-02-12T17:40:12.124Z,102871.78
2019-02-12T17:43:40.039Z,102886.89
2019-02-12T17:47:08.231Z,102877.79
2019-02-12T17:50:36.492Z,102882
2019-02-12T17:54:04.629Z,102876.43
2019-02-12T17:57:33.634Z,102880.03
2019-02-12T18:01:01.698Z,102881.05
2019-02-12T18:04:29.742Z,102881.62
2019-02-12T18:07:57.911Z,102884.31
2019-02-12T18:11:26.042Z,102888.1
2019-02-12T18:14:54.038Z,102887.4
2019-02-12T18:18:24.108Z,102881.09
2019-02-12T18:21:52.221Z,102882.32
2019-02-12T18:25:21.396Z,102879.68
2019-02-12T18:28:49.328Z,102877.37
2019-02-12T18:32:17.412Z,102874.17
2019-02-12T18:35:46.337Z,102871.92
2019-02-12T18:39:14.239Z,102877.97
2019-02-12T18:42:42.139Z,102875.06
2019-02-12T18:46:10.046Z,102877.65
2019-02-12T18:49:38.013Z,102871.38
2019-02-12T18:53:05.937Z,102863.88
2019-02-12T18:56:41.396Z,102854.6
2019-02-12T19:00:06.229Z,102854.15
2019-02-12T19:03:34.333Z,102854.13
2019-02-12T19:07:02.343Z,102852.54
2019-02-12T19:10:31.575Z,102853.99
2019-02-12T19:13:59.675Z,102858.63
2019-02-12T19:17:28.588Z,102865.54
2019-02-12T19:20:56.527Z,102856.89
2019-02-12T19:24:25.461Z,102851.62
2019-02-12T19:27:53.393Z,102848.75
2019-02-12T19:31:21.291Z,102858.73
2019-02-12T19:34:49.210Z,102856.48
2019-02-12T19:38:17.167Z,102851.04
2019-02-12T19:41:45.059Z,102850.1
2019-02-12T19:45:13.016Z,102845.14
2019-02-12T19:48:40.989Z,102845.12
2019-02-12T19:52:08.833Z,102841.29
2019-02-12T19:55:37.745Z,102847.25
2019-02-12T19:59:05.668Z,102852.04
2019-02-12T20:02:33.581Z,102852.67
2019-02-12T20:06:01.529Z,102871.92
2019-02-12T20:09:29.418Z,102872.73
2019-02-12T20:12:57.338Z,102873.7
2019-02-12T20:16:25.241Z,102869.89
2019-02-12T20:19:55.143Z,102867.15
2019-02-12T20:23:24.026Z,102861.34
2019-02-12T20:26:51.948Z,102860.1
2019-02-12T20:30:19.887Z,102854.79
2019-02-12T20:33:47.789Z,102846.5
2019-02-12T20:37:19.715Z,102844.4
2019-02-12T20:40:47.606Z,102844.42
2019-02-12T20:44:15.564Z,102848.89
2019-02-12T20:47:43.544Z,102849.53
2019-02-12T20:51:11.461Z,102855.45
2019-02-12T20:54:39.407Z,102850.82
2019-02-12T20:58:07.366Z,102844.59
2019-02-12T21:01:36.074Z,102835.12
2019-02-12T21:05:05.011Z,102826.87
2019-02-12T21:08:34.280Z,102825.57
2019-02-12T21:12:02.250Z,102822.36
2019-02-12T21:15:30.151Z,102815.75
2019-02-12T21:18:58.146Z,102814
2019-02-12T21:22:26.040Z,102813.32
2019-02-12T21:25:53.930Z,102821.48
2019-02-12T21:29:23.537Z,102822.42
2019-02-12T21:32:50.833Z,102825.17
2019-02-12T21:36:18.765Z,102828.03
2019-02-12T21:39:46.679Z,102825.31
2019-02-12T21:43:14.562Z,102825.12
2019-02-12T21:46:43.558Z,102816.04
2019-02-12T21:50:11.517Z,102812.46
2019-02-12T21:53:39.397Z,102816.18
2019-02-12T21:57:07.322Z,102802.55
2019-02-12T22:00:35.263Z,102797.92
2019-02-12T22:04:03.206Z,102797.26
2019-02-12T22:07:31.145Z,102800.29
2019-02-12T22:10:59.038Z,102790.21
2019-02-12T22:14:27.029Z,102786.2
2019-02-12T22:17:54.900Z,102776.42
2019-02-12T22:21:22.793Z,102776.28
2019-02-12T22:24:50.880Z,102775.17
2019-02-12T22:28:19.778Z,102773.07
2019-02-12T22:31:47.668Z,102757.85
2019-02-12T22:35:16.556Z,102771.92
2019-02-12T22:38:44.504Z,102766.12
2019-02-12T22:42:12.408Z,102767.21
2019-02-12T22:45:40.335Z,102768.17
2019-02-12T22:49:08.353Z,102769.45
2019-02-12T22:52:36.259Z,102757.44
2019-02-12T22:56:04.185Z,102747.37
2019-02-12T22:59:33.051Z,102741.64
